sensor_id;sensor_type;location;lat;lon;timestamp;temperature;humidity
5457;DHT22;2751;49.802;9.944;2022-11-20T00:01:37;2.20;1.00
5457;DHT22;2751;49.802;9.944;2022-11-20T00:04:04;2.20;1.00
5457;DHT22;2751;49.802;9.944;2022-11-20T00:06:31;2.20;1.00
5457;DHT22;2751;49.802;9.944;2022-11-20T00:08:59;2.20;1.00
5457;DHT22;2751;49.802;9.944;2022-11-20T00:11:27;2.20;1.00
5457;DHT22;2751;49.802;9.944;2022-11-20T00:13:56;2.20;14.90
5457;DHT22;2751;49.802;9.944;2022-11-20T00:16:24;2.30;1.00
5457;DHT22;2751;49.802;9.944;2022-11-20T00:18:53;2.70;99.90
5457;DHT22;2751;49.802;9.944;2022-11-20T00:21:25;2.70;78.90
5457;DHT22;2751;49.802;9.944;2022-11-20T00:23:54;2.30;99.90
5457;DHT22;2751;49.802;9.944;2022-11-20T00:26:23;2.40;1.00
5457;DHT22;2751;49.802;9.944;2022-11-20T00:28:52;2.40;99.90
5457;DHT22;2751;49.802;9.944;2022-11-20T00:31:19;2.40;96.00
5457;DHT22;2751;49.802;9.944;2022-11-20T00:33:47;2.30;1.00
5457;DHT22;2751;49.802;9.944;2022-11-20T00:36:17;2.30;1.00
5457;DHT22;2751;49.802;9.944;2022-11-20T00:38:44;2.30;1.00
5457;DHT22;2751;49.802;9.944;2022-11-20T00:41:13;2.40;1.00
5457;DHT22;2751;49.802;9.944;2022-11-20T00:43:41;2.40;1.00
5457;DHT22;2751;49.802;9.944;2022-11-20T00:46:10;2.80;1.00
5457;DHT22;2751;49.802;9.944;2022-11-20T00:48:39;2.40;1.00
5457;DHT22;2751;49.802;9.944;2022-11-20T00:51:09;2.50;1.00
5457;DHT22;2751;49.802;9.944;2022-11-20T00:53:39;2.50;1.00
5457;DHT22;2751;49.802;9.944;2022-11-20T00:56:07;2.50;1.00
5457;DHT22;2751;49.802;9.944;2022-11-20T00:58:37;2.50;83.50
5457;DHT22;2751;49.802;9.944;2022-11-20T01:01:06;2.40;1.00
5457;DHT22;2751;49.802;9.944;2022-11-20T01:03:34;2.50;99.90
5457;DHT22;2751;49.802;9.944;2022-11-20T01:06:02;2.40;1.00
5457;DHT22;2751;49.802;9.944;2022-11-20T01:08:30;2.30;1.00
5457;DHT22;2751;49.802;9.944;2022-11-20T01:11:04;2.20;99.90
5457;DHT22;2751;49.802;9.944;2022-11-20T01:13:32;2.30;1.00
5457;DHT22;2751;49.802;9.944;2022-11-20T01:16:05;2.60;99.90
5457;DHT22;2751;49.802;9.944;2022-11-20T01:18:33;2.30;99.90
5457;DHT22;2751;49.802;9.944;2022-11-20T01:21:01;2.20;1.00
5457;DHT22;2751;49.802;9.944;2022-11-20T01:23:31;2.20;1.00
5457;DHT22;2751;49.802;9.944;2022-11-20T01:26:01;2.20;99.90
5457;DHT22;2751;49.802;9.944;2022-11-20T01:28:29;2.20;99.90
5457;DHT22;2751;49.802;9.944;2022-11-20T01:30:56;2.20;99.90
5457;DHT22;2751;49.802;9.944;2022-11-20T01:33:24;2.20;99.90
5457;DHT22;2751;49.802;9.944;2022-11-20T01:35:51;2.20;99.90
5457;DHT22;2751;49.802;9.944;2022-11-20T01:38:19;2.60;99.90
5457;DHT22;2751;49.802;9.944;2022-11-20T01:40:54;2.20;99.90
5457;DHT22;2751;49.802;9.944;2022-11-20T01:43:24;2.20;64.60
5457;DHT22;2751;49.802;9.944;2022-11-20T01:46:06;2.20;99.90
5457;DHT22;2751;49.802;9.944;2022-11-20T01:48:38;2.20;99.90
5457;DHT22;2751;49.802;9.944;2022-11-20T01:51:12;2.20;1.00
5457;DHT22;2751;49.802;9.944;2022-11-20T01:53:42;2.20;1.00
5457;DHT22;2751;49.802;9.944;2022-11-20T01:56:12;2.20;99.90
5457;DHT22;2751;49.802;9.944;2022-11-20T01:58:44;2.20;99.90
5457;DHT22;2751;49.802;9.944;2022-11-20T02:01:13;2.20;99.90
5457;DHT22;2751;49.802;9.944;2022-11-20T02:03:41;2.40;1.00
5457;DHT22;2751;49.802;9.944;2022-11-20T02:06:12;2.20;99.90
5457;DHT22;2751;49.802;9.944;2022-11-20T02:08:41;2.20;1.00
5457;DHT22;2751;49.802;9.944;2022-11-20T02:11:08;2.10;1.00
5457;DHT22;2751;49.802;9.944;2022-11-20T02:13:35;2.10;31.60
5457;DHT22;2751;49.802;9.944;2022-11-20T02:16:16;2.10;99.90
5457;DHT22;2751;49.802;9.944;2022-11-20T02:18:46;2.40;1.00
5457;DHT22;2751;49.802;9.944;2022-11-20T02:21:21;2.10;99.90
5457;DHT22;2751;49.802;9.944;2022-11-20T02:24:03;2.60;99.90
5457;DHT22;2751;49.802;9.944;2022-11-20T02:26:33;2.10;99.90
5457;DHT22;2751;49.802;9.944;2022-11-20T02:29:02;2.40;99.90
5457;DHT22;2751;49.802;9.944;2022-11-20T02:31:37;2.20;99.90
5457;DHT22;2751;49.802;9.944;2022-11-20T02:34:05;2.20;99.90
5457;DHT22;2751;49.802;9.944;2022-11-20T02:36:32;2.10;99.90
5457;DHT22;2751;49.802;9.944;2022-11-20T02:39:02;2.40;1.00
5457;DHT22;2751;49.802;9.944;2022-11-20T02:41:33;2.00;1.00
5457;DHT22;2751;49.802;9.944;2022-11-20T02:44:01;1.90;50.80
5457;DHT22;2751;49.802;9.944;2022-11-20T02:46:30;2.30;99.90
5457;DHT22;2751;49.802;9.944;2022-11-20T02:48:57;1.90;99.90
5457;DHT22;2751;49.802;9.944;2022-11-20T02:51:24;1.90;99.90
5457;DHT22;2751;49.802;9.944;2022-11-20T02:53:51;1.90;99.90
5457;DHT22;2751;49.802;9.944;2022-11-20T02:56:19;1.80;99.90
5457;DHT22;2751;49.802;9.944;2022-11-20T02:58:46;1.90;99.90
5457;DHT22;2751;49.802;9.944;2022-11-20T03:01:13;2.20;99.90
5457;DHT22;2751;49.802;9.944;2022-11-20T03:03:40;1.90;1.00
5457;DHT22;2751;49.802;9.944;2022-11-20T03:06:07;1.90;1.00
5457;DHT22;2751;49.802;9.944;2022-11-20T03:08:36;1.90;1.00
5457;DHT22;2751;49.802;9.944;2022-11-20T03:11:04;1.90;1.00
5457;DHT22;2751;49.802;9.944;2022-11-20T03:13:34;1.80;99.90
5457;DHT22;2751;49.802;9.944;2022-11-20T03:16:06;1.80;1.00
5457;DHT22;2751;49.802;9.944;2022-11-20T03:18:33;1.80;1.00
5457;DHT22;2751;49.802;9.944;2022-11-20T03:21:00;1.80;1.00
5457;DHT22;2751;49.802;9.944;2022-11-20T03:23:29;1.80;1.00
5457;DHT22;2751;49.802;9.944;2022-11-20T03:26:07;2.00;1.00
5457;DHT22;2751;49.802;9.944;2022-11-20T03:28:35;1.70;1.00
5457;DHT22;2751;49.802;9.944;2022-11-20T03:31:06;1.50;99.90
5457;DHT22;2751;49.802;9.944;2022-11-20T03:33:33;1.50;1.00
5457;DHT22;2751;49.802;9.944;2022-11-20T03:36:01;1.90;1.00
5457;DHT22;2751;49.802;9.944;2022-11-20T03:38:29;1.50;1.00
5457;DHT22;2751;49.802;9.944;2022-11-20T03:40:59;1.50;1.00
5457;DHT22;2751;49.802;9.944;2022-11-20T03:43:26;1.80;1.00
5457;DHT22;2751;49.802;9.944;2022-11-20T03:45:55;1.50;1.00
5457;DHT22;2751;49.802;9.944;2022-11-20T03:48:22;1.50;1.00
5457;DHT22;2751;49.802;9.944;2022-11-20T03:50:49;1.60;1.00
5457;DHT22;2751;49.802;9.944;2022-11-20T03:53:16;1.50;1.00
5457;DHT22;2751;49.802;9.944;2022-11-20T03:55:43;1.50;1.00
5457;DHT22;2751;49.802;9.944;2022-11-20T03:58:10;1.50;1.00
5457;DHT22;2751;49.802;9.944;2022-11-20T04:00:39;1.40;1.00
5457;DHT22;2751;49.802;9.944;2022-11-20T04:03:07;1.40;1.00
5457;DHT22;2751;49.802;9.944;2022-11-20T04:05:34;1.40;1.00
5457;DHT22;2751;49.802;9.944;2022-11-20T04:08:01;1.40;1.00
5457;DHT22;2751;49.802;9.944;2022-11-20T04:10:28;1.40;1.00
5457;DHT22;2751;49.802;9.944;2022-11-20T04:12:54;1.40;1.00
5457;DHT22;2751;49.802;9.944;2022-11-20T04:15:21;1.40;1.00
5457;DHT22;2751;49.802;9.944;2022-11-20T04:17:48;1.50;1.00
5457;DHT22;2751;49.802;9.944;2022-11-20T04:20:16;1.50;1.00
5457;DHT22;2751;49.802;9.944;2022-11-20T04:22:43;1.50;1.00
5457;DHT22;2751;49.802;9.944;2022-11-20T04:25:10;1.60;1.00
5457;DHT22;2751;49.802;9.944;2022-11-20T04:27:37;1.60;1.00
5457;DHT22;2751;49.802;9.944;2022-11-20T04:30:05;2.00;1.00
5457;DHT22;2751;49.802;9.944;2022-11-20T04:32:32;1.60;1.00
5457;DHT22;2751;49.802;9.944;2022-11-20T04:34:59;1.60;1.00
5457;DHT22;2751;49.802;9.944;2022-11-20T04:37:27;1.60;1.00
5457;DHT22;2751;49.802;9.944;2022-11-20T04:39:54;1.70;1.00
5457;DHT22;2751;49.802;9.944;2022-11-20T04:42:21;1.60;1.00
5457;DHT22;2751;49.802;9.944;2022-11-20T04:44:57;1.70;1.00
5457;DHT22;2751;49.802;9.944;2022-11-20T04:47:24;1.70;1.00
5457;DHT22;2751;49.802;9.944;2022-11-20T04:49:51;1.70;1.00
5457;DHT22;2751;49.802;9.944;2022-11-20T04:52:18;1.70;1.00
5457;DHT22;2751;49.802;9.944;2022-11-20T04:54:46;1.80;1.00
5457;DHT22;2751;49.802;9.944;2022-11-20T04:57:14;1.70;1.00
5457;DHT22;2751;49.802;9.944;2022-11-20T04:59:41;1.70;1.00
5457;DHT22;2751;49.802;9.944;2022-11-20T05:02:09;1.80;1.00
5457;DHT22;2751;49.802;9.944;2022-11-20T05:04:36;1.70;1.00
5457;DHT22;2751;49.802;9.944;2022-11-20T05:07:03;1.70;1.00
5457;DHT22;2751;49.802;9.944;2022-11-20T05:09:32;1.70;1.00
5457;DHT22;2751;49.802;9.944;2022-11-20T05:12:00;1.80;1.00
5457;DHT22;2751;49.802;9.944;2022-11-20T05:14:27;1.70;1.00
5457;DHT22;2751;49.802;9.944;2022-11-20T05:16:54;2.00;1.00
5457;DHT22;2751;49.802;9.944;2022-11-20T05:19:21;1.70;1.00
5457;DHT22;2751;49.802;9.944;2022-11-20T05:21:48;2.00;1.00
5457;DHT22;2751;49.802;9.944;2022-11-20T05:24:15;1.80;1.00
5457;DHT22;2751;49.802;9.944;2022-11-20T05:26:42;1.90;1.00
5457;DHT22;2751;49.802;9.944;2022-11-20T05:29:12;1.90;1.00
5457;DHT22;2751;49.802;9.944;2022-11-20T05:31:39;1.90;1.00
5457;DHT22;2751;49.802;9.944;2022-11-20T05:34:07;2.30;1.00
5457;DHT22;2751;49.802;9.944;2022-11-20T05:36:34;1.90;1.00
5457;DHT22;2751;49.802;9.944;2022-11-20T05:39:01;1.90;1.00
5457;DHT22;2751;49.802;9.944;2022-11-20T05:41:28;2.00;1.00
5457;DHT22;2751;49.802;9.944;2022-11-20T05:43:56;2.00;1.00
5457;DHT22;2751;49.802;9.944;2022-11-20T05:46:28;2.00;1.00
5457;DHT22;2751;49.802;9.944;2022-11-20T05:48:55;2.10;1.00
5457;DHT22;2751;49.802;9.944;2022-11-20T05:51:22;2.10;1.00
5457;DHT22;2751;49.802;9.944;2022-11-20T05:53:49;2.10;1.00
5457;DHT22;2751;49.802;9.944;2022-11-20T05:56:17;2.10;1.00
5457;DHT22;2751;49.802;9.944;2022-11-20T05:58:45;2.10;1.00
5457;DHT22;2751;49.802;9.944;2022-11-20T06:01:14;2.40;1.00
5457;DHT22;2751;49.802;9.944;2022-11-20T06:03:44;2.10;99.90
5457;DHT22;2751;49.802;9.944;2022-11-20T06:06:13;2.00;99.90
5457;DHT22;2751;49.802;9.944;2022-11-20T06:08:42;1.90;99.90
5457;DHT22;2751;49.802;9.944;2022-11-20T06:11:10;1.90;99.90
5457;DHT22;2751;49.802;9.944;2022-11-20T06:13:38;1.90;99.90
5457;DHT22;2751;49.802;9.944;2022-11-20T06:16:05;1.80;99.90
5457;DHT22;2751;49.802;9.944;2022-11-20T06:18:32;1.90;1.00
5457;DHT22;2751;49.802;9.944;2022-11-20T06:21:02;1.90;1.00
5457;DHT22;2751;49.802;9.944;2022-11-20T06:23:30;1.90;1.00
5457;DHT22;2751;49.802;9.944;2022-11-20T06:26:01;1.90;1.00
5457;DHT22;2751;49.802;9.944;2022-11-20T06:28:28;1.90;1.00
5457;DHT22;2751;49.802;9.944;2022-11-20T06:30:55;2.00;1.00
5457;DHT22;2751;49.802;9.944;2022-11-20T06:33:22;2.00;1.00
5457;DHT22;2751;49.802;9.944;2022-11-20T06:35:49;2.10;99.90
5457;DHT22;2751;49.802;9.944;2022-11-20T06:38:17;2.10;99.90
5457;DHT22;2751;49.802;9.944;2022-11-20T06:40:44;2.10;99.90
5457;DHT22;2751;49.802;9.944;2022-11-20T06:43:11;2.10;99.90
5457;DHT22;2751;49.802;9.944;2022-11-20T06:45:38;2.10;99.90
5457;DHT22;2751;49.802;9.944;2022-11-20T06:48:05;2.10;99.90
5457;DHT22;2751;49.802;9.944;2022-11-20T06:50:32;2.10;99.90
5457;DHT22;2751;49.802;9.944;2022-11-20T06:53:01;2.10;99.90
5457;DHT22;2751;49.802;9.944;2022-11-20T06:55:31;2.10;99.90
5457;DHT22;2751;49.802;9.944;2022-11-20T06:57:58;2.10;99.90
5457;DHT22;2751;49.802;9.944;2022-11-20T07:00:26;2.10;99.90
5457;DHT22;2751;49.802;9.944;2022-11-20T07:02:53;2.00;99.90
5457;DHT22;2751;49.802;9.944;2022-11-20T07:05:20;2.00;99.90
5457;DHT22;2751;49.802;9.944;2022-11-20T07:07:47;2.10;99.90
5457;DHT22;2751;49.802;9.944;2022-11-20T07:10:14;2.10;1.00
5457;DHT22;2751;49.802;9.944;2022-11-20T07:12:48;2.10;1.00
5457;DHT22;2751;49.802;9.944;2022-11-20T07:15:15;2.10;99.90
5457;DHT22;2751;49.802;9.944;2022-11-20T07:17:42;2.10;99.90
5457;DHT22;2751;49.802;9.944;2022-11-20T07:20:10;2.10;99.90
5457;DHT22;2751;49.802;9.944;2022-11-20T07:22:37;2.10;99.90
5457;DHT22;2751;49.802;9.944;2022-11-20T07:25:04;2.20;1.00
5457;DHT22;2751;49.802;9.944;2022-11-20T07:27:31;2.20;1.00
5457;DHT22;2751;49.802;9.944;2022-11-20T07:30:00;2.30;1.00
5457;DHT22;2751;49.802;9.944;2022-11-20T07:32:27;2.60;99.90
5457;DHT22;2751;49.802;9.944;2022-11-20T07:34:54;2.40;99.90
5457;DHT22;2751;49.802;9.944;2022-11-20T07:37:21;2.40;99.90
5457;DHT22;2751;49.802;9.944;2022-11-20T07:39:48;2.50;1.00
5457;DHT22;2751;49.802;9.944;2022-11-20T07:42:14;2.50;99.90
5457;DHT22;2751;49.802;9.944;2022-11-20T07:44:41;2.60;99.90
5457;DHT22;2751;49.802;9.944;2022-11-20T07:47:10;2.60;99.90
5457;DHT22;2751;49.802;9.944;2022-11-20T07:49:36;2.60;99.90
5457;DHT22;2751;49.802;9.944;2022-11-20T07:52:03;2.50;99.90
5457;DHT22;2751;49.802;9.944;2022-11-20T07:54:30;2.20;99.90
5457;DHT22;2751;49.802;9.944;2022-11-20T07:56:57;2.40;99.90
5457;DHT22;2751;49.802;9.944;2022-11-20T07:59:24;2.90;99.90
5457;DHT22;2751;49.802;9.944;2022-11-20T08:01:51;2.40;99.90
5457;DHT22;2751;49.802;9.944;2022-11-20T08:04:19;2.80;99.90
5457;DHT22;2751;49.802;9.944;2022-11-20T08:06:46;2.40;1.00
5457;DHT22;2751;49.802;9.944;2022-11-20T08:09:13;2.70;1.00
5457;DHT22;2751;49.802;9.944;2022-11-20T08:11:40;2.30;1.00
5457;DHT22;2751;49.802;9.944;2022-11-20T08:14:24;2.80;1.00
5457;DHT22;2751;49.802;9.944;2022-11-20T08:16:52;2.40;1.00
5457;DHT22;2751;49.802;9.944;2022-11-20T08:19:21;2.30;1.00
5457;DHT22;2751;49.802;9.944;2022-11-20T08:21:48;2.40;1.00
5457;DHT22;2751;49.802;9.944;2022-11-20T08:24:15;2.50;1.00
5457;DHT22;2751;49.802;9.944;2022-11-20T08:26:42;2.40;1.00
5457;DHT22;2751;49.802;9.944;2022-11-20T08:29:08;2.30;1.00
5457;DHT22;2751;49.802;9.944;2022-11-20T08:31:35;2.30;1.00
5457;DHT22;2751;49.802;9.944;2022-11-20T08:34:02;2.60;1.00
5457;DHT22;2751;49.802;9.944;2022-11-20T08:36:33;2.50;1.00
5457;DHT22;2751;49.802;9.944;2022-11-20T08:39:00;2.60;1.00
5457;DHT22;2751;49.802;9.944;2022-11-20T08:41:29;2.60;1.00
5457;DHT22;2751;49.802;9.944;2022-11-20T08:43:59;2.70;1.00
5457;DHT22;2751;49.802;9.944;2022-11-20T08:46:30;2.80;1.00
5457;DHT22;2751;49.802;9.944;2022-11-20T08:48:58;2.90;1.00
5457;DHT22;2751;49.802;9.944;2022-11-20T08:51:25;3.00;1.00
5457;DHT22;2751;49.802;9.944;2022-11-20T08:53:53;3.00;99.90
5457;DHT22;2751;49.802;9.944;2022-11-20T08:56:21;3.00;99.90
5457;DHT22;2751;49.802;9.944;2022-11-20T08:58:50;3.00;99.90
5457;DHT22;2751;49.802;9.944;2022-11-20T09:01:18;3.20;99.90
5457;DHT22;2751;49.802;9.944;2022-11-20T09:03:45;3.30;99.90
5457;DHT22;2751;49.802;9.944;2022-11-20T09:06:12;3.30;99.90
5457;DHT22;2751;49.802;9.944;2022-11-20T09:08:39;3.40;1.00
5457;DHT22;2751;49.802;9.944;2022-11-20T09:11:08;3.40;99.90
5457;DHT22;2751;49.802;9.944;2022-11-20T09:13:35;3.40;1.00
5457;DHT22;2751;49.802;9.944;2022-11-20T09:16:04;3.40;1.00
5457;DHT22;2751;49.802;9.944;2022-11-20T09:18:32;3.40;99.90
5457;DHT22;2751;49.802;9.944;2022-11-20T09:21:03;3.50;99.90
5457;DHT22;2751;49.802;9.944;2022-11-20T09:23:32;3.40;1.00
5457;DHT22;2751;49.802;9.944;2022-11-20T09:26:02;3.40;99.90
5457;DHT22;2751;49.802;9.944;2022-11-20T09:28:30;3.40;23.60
5457;DHT22;2751;49.802;9.944;2022-11-20T09:30:57;3.40;99.90
5457;DHT22;2751;49.802;9.944;2022-11-20T09:33:24;3.50;99.90
5457;DHT22;2751;49.802;9.944;2022-11-20T09:35:51;3.50;1.00
5457;DHT22;2751;49.802;9.944;2022-11-20T09:38:18;3.60;99.90
5457;DHT22;2751;49.802;9.944;2022-11-20T09:40:49;3.50;99.90
5457;DHT22;2751;49.802;9.944;2022-11-20T09:43:21;3.50;99.90
5457;DHT22;2751;49.802;9.944;2022-11-20T09:45:59;3.40;99.90
5457;DHT22;2751;49.802;9.944;2022-11-20T09:48:42;3.50;99.90
5457;DHT22;2751;49.802;9.944;2022-11-20T09:51:20;3.40;1.00
5457;DHT22;2751;49.802;9.944;2022-11-20T09:53:58;3.20;96.00
5457;DHT22;2751;49.802;9.944;2022-11-20T09:56:28;3.20;99.90
5457;DHT22;2751;49.802;9.944;2022-11-20T09:58:59;3.20;99.90
5457;DHT22;2751;49.802;9.944;2022-11-20T10:01:31;3.30;1.00
5457;DHT22;2751;49.802;9.944;2022-11-20T10:04:01;3.30;1.00
5457;DHT22;2751;49.802;9.944;2022-11-20T10:06:31;3.50;1.00
5457;DHT22;2751;49.802;9.944;2022-11-20T10:09:16;3.60;99.90
5457;DHT22;2751;49.802;9.944;2022-11-20T10:11:51;3.80;99.90
5457;DHT22;2751;49.802;9.944;2022-11-20T10:14:26;4.10;99.90
5457;DHT22;2751;49.802;9.944;2022-11-20T10:17:04;4.20;1.30
5457;DHT22;2751;49.802;9.944;2022-11-20T10:19:45;4.50;1.00
5457;DHT22;2751;49.802;9.944;2022-11-20T10:22:25;4.60;1.00
5457;DHT22;2751;49.802;9.944;2022-11-20T10:24:57;4.80;98.60
5457;DHT22;2751;49.802;9.944;2022-11-20T10:27:59;4.90;99.90
5457;DHT22;2751;49.802;9.944;2022-11-20T10:30:28;5.10;99.90
5457;DHT22;2751;49.802;9.944;2022-11-20T10:33:03;5.30;1.00
5457;DHT22;2751;49.802;9.944;2022-11-20T10:35:35;5.50;1.00
5457;DHT22;2751;49.802;9.944;2022-11-20T10:38:08;5.60;1.00
5457;DHT22;2751;49.802;9.944;2022-11-20T10:40:39;5.50;99.90
5457;DHT22;2751;49.802;9.944;2022-11-20T10:43:12;5.40;99.90
5457;DHT22;2751;49.802;9.944;2022-11-20T10:45:46;5.30;1.00
5457;DHT22;2751;49.802;9.944;2022-11-20T10:48:20;5.20;1.00
5457;DHT22;2751;49.802;9.944;2022-11-20T10:51:09;5.00;99.90
5457;DHT22;2751;49.802;9.944;2022-11-20T10:53:58;4.80;1.00
5457;DHT22;2751;49.802;9.944;2022-11-20T10:56:35;4.90;1.00
5457;DHT22;2751;49.802;9.944;2022-11-20T10:59:27;5.00;99.90
5457;DHT22;2751;49.802;9.944;2022-11-20T11:01:59;5.20;99.90
5457;DHT22;2751;49.802;9.944;2022-11-20T11:04:36;5.50;99.90
5457;DHT22;2751;49.802;9.944;2022-11-20T11:07:10;5.50;1.00
5457;DHT22;2751;49.802;9.944;2022-11-20T11:09:41;5.70;99.90
5457;DHT22;2751;49.802;9.944;2022-11-20T11:12:09;5.60;1.00
5457;DHT22;2751;49.802;9.944;2022-11-20T11:14:48;5.70;99.90
5457;DHT22;2751;49.802;9.944;2022-11-20T11:17:22;6.00;99.90
5457;DHT22;2751;49.802;9.944;2022-11-20T11:20:06;5.70;1.00
5457;DHT22;2751;49.802;9.944;2022-11-20T11:22:46;5.60;40.70
5457;DHT22;2751;49.802;9.944;2022-11-20T11:25:22;5.50;99.90
5457;DHT22;2751;49.802;9.944;2022-11-20T11:27:51;5.60;99.90
5457;DHT22;2751;49.802;9.944;2022-11-20T11:30:19;4.90;1.00
5457;DHT22;2751;49.802;9.944;2022-11-20T11:32:47;4.90;1.00
5457;DHT22;2751;49.802;9.944;2022-11-20T11:35:23;4.80;1.00
5457;DHT22;2751;49.802;9.944;2022-11-20T11:37:52;4.80;1.00
5457;DHT22;2751;49.802;9.944;2022-11-20T11:40:22;5.20;37.90
5457;DHT22;2751;49.802;9.944;2022-11-20T11:42:56;4.70;1.00
5457;DHT22;2751;49.802;9.944;2022-11-20T11:45:23;5.00;1.00
5457;DHT22;2751;49.802;9.944;2022-11-20T11:47:51;4.70;23.40
5457;DHT22;2751;49.802;9.944;2022-11-20T11:50:22;5.00;99.90
5457;DHT22;2751;49.802;9.944;2022-11-20T11:52:58;4.60;99.90
5457;DHT22;2751;49.802;9.944;2022-11-20T11:55:36;4.80;1.00
5457;DHT22;2751;49.802;9.944;2022-11-20T11:58:14;4.70;1.00
5457;DHT22;2751;49.802;9.944;2022-11-20T12:00:50;4.90;99.90
5457;DHT22;2751;49.802;9.944;2022-11-20T12:03:21;4.70;1.00
5457;DHT22;2751;49.802;9.944;2022-11-20T12:05:57;4.70;1.00
5457;DHT22;2751;49.802;9.944;2022-11-20T12:08:27;4.70;58.10
5457;DHT22;2751;49.802;9.944;2022-11-20T12:11:03;4.70;49.10
5457;DHT22;2751;49.802;9.944;2022-11-20T12:13:48;4.80;81.10
5457;DHT22;2751;49.802;9.944;2022-11-20T12:16:18;4.90;1.00
5457;DHT22;2751;49.802;9.944;2022-11-20T12:18:48;5.10;99.90
5457;DHT22;2751;49.802;9.944;2022-11-20T12:21:28;5.10;1.00
5457;DHT22;2751;49.802;9.944;2022-11-20T12:24:23;5.10;1.00
5457;DHT22;2751;49.802;9.944;2022-11-20T12:27:03;5.10;99.90
5457;DHT22;2751;49.802;9.944;2022-11-20T12:29:42;5.40;1.00
5457;DHT22;2751;49.802;9.944;2022-11-20T12:38:28;4.90;1.00
5457;DHT22;2751;49.802;9.944;2022-11-20T12:41:00;4.90;99.90
5457;DHT22;2751;49.802;9.944;2022-11-20T12:43:31;5.30;99.90
5457;DHT22;2751;49.802;9.944;2022-11-20T12:46:23;5.20;99.90
5457;DHT22;2751;49.802;9.944;2022-11-20T12:52:01;5.10;99.90
5457;DHT22;2751;49.802;9.944;2022-11-20T12:57:37;4.90;1.00
5457;DHT22;2751;49.802;9.944;2022-11-20T13:00:12;4.90;99.90
5457;DHT22;2751;49.802;9.944;2022-11-20T13:05:51;5.20;1.00
5457;DHT22;2751;49.802;9.944;2022-11-20T13:08:22;5.10;1.00
5457;DHT22;2751;49.802;9.944;2022-11-20T13:10:56;5.00;99.90
5457;DHT22;2751;49.802;9.944;2022-11-20T13:13:31;5.00;1.00
5457;DHT22;2751;49.802;9.944;2022-11-20T13:16:05;5.10;83.70
5457;DHT22;2751;49.802;9.944;2022-11-20T13:18:37;5.10;99.90
5457;DHT22;2751;49.802;9.944;2022-11-20T13:21:14;5.10;99.90
5457;DHT22;2751;49.802;9.944;2022-11-20T13:23:41;5.40;99.90
5457;DHT22;2751;49.802;9.944;2022-11-20T13:26:17;5.20;99.90
5457;DHT22;2751;49.802;9.944;2022-11-20T13:28:46;5.10;1.00
5457;DHT22;2751;49.802;9.944;2022-11-20T13:31:29;5.20;1.00
5457;DHT22;2751;49.802;9.944;2022-11-20T13:33:57;5.40;1.00
5457;DHT22;2751;49.802;9.944;2022-11-20T13:36:27;5.30;99.90
5457;DHT22;2751;49.802;9.944;2022-11-20T13:38:58;5.30;32.50
5457;DHT22;2751;49.802;9.944;2022-11-20T13:41:28;5.40;99.90
5457;DHT22;2751;49.802;9.944;2022-11-20T13:44:04;6.00;1.00
5457;DHT22;2751;49.802;9.944;2022-11-20T13:46:37;5.60;99.90
5457;DHT22;2751;49.802;9.944;2022-11-20T13:49:10;5.40;99.90
5457;DHT22;2751;49.802;9.944;2022-11-20T13:51:42;5.90;99.90
5457;DHT22;2751;49.802;9.944;2022-11-20T13:57:44;5.90;99.90
5457;DHT22;2751;49.802;9.944;2022-11-20T14:00:15;5.80;1.00
5457;DHT22;2751;49.802;9.944;2022-11-20T14:02:43;5.80;1.00
5457;DHT22;2751;49.802;9.944;2022-11-20T14:05:18;5.70;1.00
5457;DHT22;2751;49.802;9.944;2022-11-20T14:07:47;5.70;99.90
5457;DHT22;2751;49.802;9.944;2022-11-20T14:10:23;5.60;1.00
5457;DHT22;2751;49.802;9.944;2022-11-20T14:12:53;5.90;1.00
5457;DHT22;2751;49.802;9.944;2022-11-20T14:15:28;5.70;1.00
5457;DHT22;2751;49.802;9.944;2022-11-20T14:17:56;5.60;99.90
5457;DHT22;2751;49.802;9.944;2022-11-20T14:20:25;5.50;1.00
5457;DHT22;2751;49.802;9.944;2022-11-20T14:22:55;5.60;3.60
5457;DHT22;2751;49.802;9.944;2022-11-20T14:25:25;5.50;99.90
5457;DHT22;2751;49.802;9.944;2022-11-20T14:27:57;5.70;99.90
5457;DHT22;2751;49.802;9.944;2022-11-20T14:30:26;5.60;1.00
5457;DHT22;2751;49.802;9.944;2022-11-20T14:33:00;5.60;99.90
5457;DHT22;2751;49.802;9.944;2022-11-20T14:35:29;5.50;85.50
5457;DHT22;2751;49.802;9.944;2022-11-20T14:37:56;5.50;39.10
5457;DHT22;2751;49.802;9.944;2022-11-20T14:40:28;5.30;99.90
5457;DHT22;2751;49.802;9.944;2022-11-20T14:42:58;5.30;99.90
5457;DHT22;2751;49.802;9.944;2022-11-20T14:45:26;5.60;1.00
5457;DHT22;2751;49.802;9.944;2022-11-20T14:47:55;5.40;1.00
5457;DHT22;2751;49.802;9.944;2022-11-20T14:50:24;5.40;1.00
5457;DHT22;2751;49.802;9.944;2022-11-20T14:52:53;5.40;99.90
5457;DHT22;2751;49.802;9.944;2022-11-20T14:55:34;5.40;99.90
5457;DHT22;2751;49.802;9.944;2022-11-20T14:58:04;5.30;99.90
5457;DHT22;2751;49.802;9.944;2022-11-20T15:00:33;4.90;1.00
5457;DHT22;2751;49.802;9.944;2022-11-20T15:03:02;5.40;1.00
5457;DHT22;2751;49.802;9.944;2022-11-20T15:05:45;5.40;1.00
5457;DHT22;2751;49.802;9.944;2022-11-20T15:08:13;5.40;99.90
5457;DHT22;2751;49.802;9.944;2022-11-20T15:10:45;5.60;99.90
5457;DHT22;2751;49.802;9.944;2022-11-20T15:13:17;5.60;99.90
5457;DHT22;2751;49.802;9.944;2022-11-20T15:15:48;5.40;99.90
5457;DHT22;2751;49.802;9.944;2022-11-20T15:18:17;5.40;99.90
5457;DHT22;2751;49.802;9.944;2022-11-20T15:20:46;5.70;99.90
5457;DHT22;2751;49.802;9.944;2022-11-20T15:23:14;5.40;99.90
5457;DHT22;2751;49.802;9.944;2022-11-20T15:25:43;5.60;99.90
5457;DHT22;2751;49.802;9.944;2022-11-20T15:28:18;5.40;99.90
5457;DHT22;2751;49.802;9.944;2022-11-20T15:30:46;5.50;99.90
5457;DHT22;2751;49.802;9.944;2022-11-20T15:33:14;5.50;99.90
5457;DHT22;2751;49.802;9.944;2022-11-20T15:35:41;5.40;99.90
5457;DHT22;2751;49.802;9.944;2022-11-20T15:38:08;5.80;99.90
5457;DHT22;2751;49.802;9.944;2022-11-20T15:40:35;5.50;99.90
5457;DHT22;2751;49.802;9.944;2022-11-20T15:43:03;5.40;1.00
5457;DHT22;2751;49.802;9.944;2022-11-20T15:45:35;5.50;1.00
5457;DHT22;2751;49.802;9.944;2022-11-20T15:48:04;5.40;1.00
5457;DHT22;2751;49.802;9.944;2022-11-20T15:50:36;5.40;99.90
5457;DHT22;2751;49.802;9.944;2022-11-20T15:53:03;5.30;99.90
5457;DHT22;2751;49.802;9.944;2022-11-20T15:55:31;5.30;99.90
5457;DHT22;2751;49.802;9.944;2022-11-20T15:57:58;5.30;1.00
5457;DHT22;2751;49.802;9.944;2022-11-20T16:00:25;5.70;1.00
5457;DHT22;2751;49.802;9.944;2022-11-20T16:02:53;5.30;1.00
5457;DHT22;2751;49.802;9.944;2022-11-20T16:05:20;5.30;1.00
5457;DHT22;2751;49.802;9.944;2022-11-20T16:07:48;5.60;1.00
5457;DHT22;2751;49.802;9.944;2022-11-20T16:10:16;5.70;1.00
5457;DHT22;2751;49.802;9.944;2022-11-20T16:12:45;5.20;1.00
5457;DHT22;2751;49.802;9.944;2022-11-20T16:15:30;5.20;1.00
5457;DHT22;2751;49.802;9.944;2022-11-20T16:18:16;5.30;1.00
5457;DHT22;2751;49.802;9.944;2022-11-20T16:20:44;5.20;1.00
5457;DHT22;2751;49.802;9.944;2022-11-20T16:23:12;5.40;1.00
5457;DHT22;2751;49.802;9.944;2022-11-20T16:25:39;5.20;1.00
5457;DHT22;2751;49.802;9.944;2022-11-20T16:28:06;5.40;1.00
5457;DHT22;2751;49.802;9.944;2022-11-20T16:30:36;5.20;1.00
5457;DHT22;2751;49.802;9.944;2022-11-20T16:33:04;5.20;1.00
5457;DHT22;2751;49.802;9.944;2022-11-20T16:35:32;5.10;1.00
5457;DHT22;2751;49.802;9.944;2022-11-20T16:37:59;5.10;1.00
5457;DHT22;2751;49.802;9.944;2022-11-20T16:40:26;5.10;1.00
5457;DHT22;2751;49.802;9.944;2022-11-20T16:42:53;5.10;1.00
5457;DHT22;2751;49.802;9.944;2022-11-20T16:45:20;5.10;1.00
5457;DHT22;2751;49.802;9.944;2022-11-20T16:47:47;5.10;1.00
5457;DHT22;2751;49.802;9.944;2022-11-20T16:50:14;5.10;1.00
5457;DHT22;2751;49.802;9.944;2022-11-20T16:52:43;5.10;1.00
5457;DHT22;2751;49.802;9.944;2022-11-20T16:55:09;5.40;1.00
5457;DHT22;2751;49.802;9.944;2022-11-20T16:57:36;5.10;1.00
5457;DHT22;2751;49.802;9.944;2022-11-20T17:00:06;5.30;1.00
5457;DHT22;2751;49.802;9.944;2022-11-20T17:02:33;5.00;1.00
5457;DHT22;2751;49.802;9.944;2022-11-20T17:05:02;5.10;1.00